Time;durP1;ratioP1;P1;durP2;ratioP2;P2;SDS_P1;SDS_P2;PMS_P1;PMS_P2;Temp;Humidity;BMP_temperature;BMP_pressure;BME280_temperature;BME280_humidity;BME280_pressure;Samples;Min_cycle;Max_cycle;Signal;HPM_P1;HPM_P2
2021/11/05 00:00:27;;;;;;;6.53;2.40;;;;;;;;;;5041550;28;20271;-73
2021/11/05 00:02:57;;;;;;;4.17;2.00;;;;;;;;;;5044117;28;20530;-73
2021/11/05 00:05:23;;;;;;;2.73;1.87;;;;;;;;;;5020508;28;20229;-73
2021/11/05 00:07:49;;;;;;;3.57;2.20;;;;;;;;;;5039982;28;20209;-74
2021/11/05 00:10:14;;;;;;;8.43;2.07;;;;;;;;;;5041921;28;20272;-73
2021/11/05 00:12:39;;;;;;;4.73;2.53;;;;;;;;;;5029487;28;20212;-73
2021/11/05 00:15:05;;;;;;;7.30;2.40;;;;;;;;;;5046777;28;20656;-73
2021/11/05 00:17:30;;;;;;;4.83;2.37;;;;;;;;;;5044833;28;20193;-74
2021/11/05 00:19:55;;;;;;;3.73;2.40;;;;;;;;;;5044489;28;20236;-74
2021/11/05 00:22:20;;;;;;;4.23;2.20;;;;;;;;;;5025271;28;20231;-74
2021/11/05 00:24:46;;;;;;;5.73;2.10;;;;;;;;;;5025213;28;20305;-73
2021/11/05 00:27:11;;;;;;;4.13;2.37;;;;;;;;;;5032755;28;20204;-73
2021/11/05 00:29:36;;;;;;;4.47;2.17;;;;;;;;;;5000405;28;20181;-74
2021/11/05 00:32:02;;;;;;;3.67;2.30;;;;;;;;;;5025888;28;20280;-73
2021/11/05 00:34:27;;;;;;;3.13;2.07;;;;;;;;;;5009854;28;20193;-74
2021/11/05 00:36:52;;;;;;;4.37;2.67;;;;;;;;;;5025092;28;20885;-74
2021/11/05 00:39:17;;;;;;;7.97;2.40;;;;;;;;;;5014091;28;20208;-74
2021/11/05 00:41:42;;;;;;;5.23;2.47;;;;;;;;;;5024837;28;20251;-74
2021/11/05 00:44:08;;;;;;;6.20;2.47;;;;;;;;;;5024660;28;20185;-74
2021/11/05 00:46:33;;;;;;;4.67;2.33;;;;;;;;;;5006899;28;20300;-74
2021/11/05 00:49:00;;;;;;;4.00;2.33;;;;;;;;;;5025363;28;20232;-74
2021/11/05 00:51:25;;;;;;;4.50;2.50;;;;;;;;;;5024911;28;20239;-74
2021/11/05 00:53:50;;;;;;;8.57;2.53;;;;;;;;;;5025373;28;20181;-74
2021/11/05 00:56:16;;;;;;;3.83;2.50;;;;;;;;;;5023616;28;20549;-74
2021/11/05 00:58:41;;;;;;;4.37;2.50;;;;;;;;;;5030768;28;20192;-74
2021/11/05 01:01:06;;;;;;;3.83;2.57;;;;;;;;;;5023371;28;20277;-75
2021/11/05 01:03:31;;;;;;;5.47;2.57;;;;;;;;;;5007570;28;20186;-73
2021/11/05 01:05:56;;;;;;;5.40;2.73;;;;;;;;;;5023782;28;20697;-72
2021/11/05 01:08:22;;;;;;;7.00;2.97;;;;;;;;;;5023025;28;20216;-73
2021/11/05 01:10:47;;;;;;;6.83;3.10;;;;;;;;;;5023695;28;20186;-74
2021/11/05 01:13:12;;;;;;;4.37;2.70;;;;;;;;;;5025371;28;20180;-73
2021/11/05 01:15:37;;;;;;;8.37;2.67;;;;;;;;;;5029534;28;20707;-74
2021/11/05 01:18:02;;;;;;;8.47;3.00;;;;;;;;;;5035616;28;20193;-74
2021/11/05 01:20:28;;;;;;;6.13;3.03;;;;;;;;;;5028936;28;20224;-74
2021/11/05 01:22:53;;;;;;;7.00;3.00;;;;;;;;;;5028594;28;20209;-73
2021/11/05 01:25:18;;;;;;;5.60;2.87;;;;;;;;;;5026866;28;20312;-74
2021/11/05 01:27:44;;;;;;;6.23;2.87;;;;;;;;;;5037717;28;20205;-74
2021/11/05 01:30:11;;;;;;;4.30;3.10;;;;;;;;;;5029212;28;20657;-74
2021/11/05 01:32:37;;;;;;;3.43;2.67;;;;;;;;;;5029441;28;20199;-74
2021/11/05 01:35:03;;;;;;;6.07;3.00;;;;;;;;;;5027378;28;20209;-75
2021/11/05 01:37:28;;;;;;;3.00;2.67;;;;;;;;;;5026042;28;20181;-73
2021/11/05 01:39:53;;;;;;;6.23;2.60;;;;;;;;;;5027818;28;20308;-73
2021/11/05 01:42:18;;;;;;;3.43;2.63;;;;;;;;;;5028835;28;20181;-73
2021/11/05 01:44:43;;;;;;;3.70;2.67;;;;;;;;;;5027359;28;20186;-73
2021/11/05 01:47:09;;;;;;;4.40;3.23;;;;;;;;;;5031021;28;20663;-72
2021/11/05 01:49:34;;;;;;;7.43;2.73;;;;;;;;;;5027665;28;20190;-73
2021/11/05 01:52:00;;;;;;;5.97;3.00;;;;;;;;;;5039260;28;20171;-72
2021/11/05 01:54:25;;;;;;;4.80;2.33;;;;;;;;;;5049668;28;20216;-72
2021/11/05 01:56:50;;;;;;;4.53;2.90;;;;;;;;;;5049217;28;20304;-72
2021/11/05 01:59:35;;;;;;;6.70;3.13;;;;;;;;;;5049673;28;20178;-74
2021/11/05 02:02:01;;;;;;;5.53;2.47;;;;;;;;;;5000479;28;20190;-74
2021/11/05 02:04:27;;;;;;;4.23;2.60;;;;;;;;;;5027870;28;20186;-74
2021/11/05 02:06:52;;;;;;;7.70;3.07;;;;;;;;;;5027486;28;20209;-74
2021/11/05 02:09:19;;;;;;;5.17;2.63;;;;;;;;;;5026747;28;20217;-75
2021/11/05 02:11:45;;;;;;;3.10;2.50;;;;;;;;;;5025739;28;20573;-73
2021/11/05 02:14:14;;;;;;;3.43;2.20;;;;;;;;;;5027225;28;20733;-73
2021/11/05 02:16:40;;;;;;;6.77;2.30;;;;;;;;;;5015522;28;20608;-73
2021/11/05 02:19:07;;;;;;;5.00;2.50;;;;;;;;;;5027728;28;20185;-74
2021/11/05 02:21:36;;;;;;;5.83;2.33;;;;;;;;;;5026356;28;22399;-74
2021/11/05 02:24:01;;;;;;;5.90;2.20;;;;;;;;;;5010230;28;20181;-73
2021/11/05 02:26:27;;;;;;;5.93;2.07;;;;;;;;;;5027777;28;20264;-73
2021/11/05 02:28:52;;;;;;;5.43;2.30;;;;;;;;;;5032041;28;20678;-73
2021/11/05 02:31:17;;;;;;;4.97;1.80;;;;;;;;;;5026461;28;20472;-73
2021/11/05 02:33:42;;;;;;;10.73;4.60;;;;;;;;;;5024859;28;22008;-72
2021/11/05 02:36:07;;;;;;;5.03;2.03;;;;;;;;;;5028223;28;20214;-72
2021/11/05 02:38:33;;;;;;;7.33;2.13;;;;;;;;;;5000803;28;20186;-73
2021/11/05 02:40:58;;;;;;;6.03;2.10;;;;;;;;;;5025896;28;20174;-72
2021/11/05 02:43:23;;;;;;;5.47;2.00;;;;;;;;;;5027284;28;20178;-73
2021/11/05 02:45:49;;;;;;;6.00;2.07;;;;;;;;;;5027623;28;20721;-73
2021/11/05 02:48:15;;;;;;;7.43;2.40;;;;;;;;;;5025848;28;20774;-74
2021/11/05 02:50:40;;;;;;;5.43;2.17;;;;;;;;;;5027976;28;20198;-74
2021/11/05 02:53:05;;;;;;;5.03;2.20;;;;;;;;;;5028654;28;20211;-74
2021/11/05 02:55:30;;;;;;;4.47;2.40;;;;;;;;;;5010527;28;20259;-74
2021/11/05 02:57:55;;;;;;;6.23;3.30;;;;;;;;;;5030248;28;20194;-74
2021/11/05 03:00:21;;;;;;;8.57;2.60;;;;;;;;;;5027399;28;20182;-75
2021/11/05 03:02:46;;;;;;;5.17;2.27;;;;;;;;;;5009537;28;20728;-73
2021/11/05 03:05:11;;;;;;;12.40;2.40;;;;;;;;;;5025187;28;20205;-73
2021/11/05 03:07:36;;;;;;;7.53;2.57;;;;;;;;;;5027412;28;20205;-73
2021/11/05 03:10:03;;;;;;;6.67;2.40;;;;;;;;;;5023587;28;20508;-73
2021/11/05 03:12:28;;;;;;;7.43;2.50;;;;;;;;;;5006062;28;20223;-73
2021/11/05 03:14:54;;;;;;;4.07;2.40;;;;;;;;;;5006980;28;20348;-74
2021/11/05 03:17:19;;;;;;;4.63;2.67;;;;;;;;;;5028228;28;20170;-73
2021/11/05 03:19:44;;;;;;;5.33;2.43;;;;;;;;;;5026607;28;20272;-73
2021/11/05 03:22:09;;;;;;;4.67;2.50;;;;;;;;;;5025943;28;20284;-73
2021/11/05 03:24:34;;;;;;;4.77;2.40;;;;;;;;;;5026056;28;20243;-73
2021/11/05 03:27:00;;;;;;;4.20;2.80;;;;;;;;;;5027411;28;20187;-74
2021/11/05 03:29:25;;;;;;;3.97;2.60;;;;;;;;;;5026227;28;20202;-74
2021/11/05 03:31:50;;;;;;;6.93;2.77;;;;;;;;;;5025805;28;20190;-73
2021/11/05 03:34:15;;;;;;;6.17;3.10;;;;;;;;;;5025228;28;20273;-74
2021/11/05 03:36:41;;;;;;;4.07;2.47;;;;;;;;;;5008467;28;20197;-73
2021/11/05 03:39:06;;;;;;;6.63;2.50;;;;;;;;;;5011294;28;20300;-73
2021/11/05 03:41:31;;;;;;;7.13;2.90;;;;;;;;;;5023215;28;20272;-74
2021/11/05 03:43:57;;;;;;;5.17;2.80;;;;;;;;;;5024484;28;20772;-74
2021/11/05 03:46:22;;;;;;;5.40;2.70;;;;;;;;;;5025297;28;20234;-75
2021/11/05 03:48:47;;;;;;;8.13;3.03;;;;;;;;;;5024822;28;20220;-75
2021/11/05 03:51:13;;;;;;;9.50;2.80;;;;;;;;;;5008027;28;20177;-73
2021/11/05 03:53:38;;;;;;;8.90;4.10;;;;;;;;;;5024374;28;20174;-74
2021/11/05 03:56:04;;;;;;;9.53;3.90;;;;;;;;;;5028260;28;20251;-74
2021/11/05 03:58:29;;;;;;;6.63;2.90;;;;;;;;;;5029974;28;20188;-74
2021/11/05 04:00:54;;;;;;;6.23;2.73;;;;;;;;;;5027463;28;20376;-74
2021/11/05 04:03:20;;;;;;;6.87;2.80;;;;;;;;;;5026604;28;20209;-74
2021/11/05 04:05:46;;;;;;;7.37;4.07;;;;;;;;;;5007008;28;20581;-74
2021/11/05 04:08:11;;;;;;;5.80;3.27;;;;;;;;;;5022739;28;20234;-74
2021/11/05 04:10:36;;;;;;;5.43;2.90;;;;;;;;;;5026202;28;20174;-74
2021/11/05 04:13:01;;;;;;;7.63;3.60;;;;;;;;;;5015718;28;20277;-74
2021/11/05 04:15:27;;;;;;;7.33;4.20;;;;;;;;;;5023908;28;20203;-74
2021/11/05 04:17:52;;;;;;;5.57;3.40;;;;;;;;;;5010060;28;20184;-74
2021/11/05 04:20:18;;;;;;;7.23;2.80;;;;;;;;;;5024725;28;20189;-73
2021/11/05 04:22:43;;;;;;;6.53;2.87;;;;;;;;;;5025272;28;20178;-73
2021/11/05 04:25:08;;;;;;;4.67;2.50;;;;;;;;;;5007183;28;20205;-73
2021/11/05 04:27:34;;;;;;;7.57;3.07;;;;;;;;;;5028111;28;20209;-73
2021/11/05 04:29:59;;;;;;;5.37;3.00;;;;;;;;;;5006592;28;20209;-74
2021/11/05 04:32:24;;;;;;;4.93;2.80;;;;;;;;;;5022267;28;20178;-74
2021/11/05 04:34:49;;;;;;;9.90;2.80;;;;;;;;;;5025250;28;20213;-74
2021/11/05 04:37:15;;;;;;;6.33;2.50;;;;;;;;;;5025193;28;20175;-74
2021/11/05 04:39:40;;;;;;;4.17;2.50;;;;;;;;;;5024583;28;21231;-74
2021/11/05 04:42:05;;;;;;;5.93;2.30;;;;;;;;;;5009340;28;20170;-73
2021/11/05 04:44:30;;;;;;;12.43;3.43;;;;;;;;;;5021188;28;20556;-73
2021/11/05 04:46:55;;;;;;;9.03;2.60;;;;;;;;;;5024610;28;20198;-73
2021/11/05 04:49:22;;;;;;;6.30;2.73;;;;;;;;;;5027582;28;20206;-74
2021/11/05 04:51:48;;;;;;;4.80;2.80;;;;;;;;;;5028983;28;20185;-74
2021/11/05 04:54:13;;;;;;;3.77;2.17;;;;;;;;;;5027550;28;20218;-74
2021/11/05 04:56:39;;;;;;;4.93;2.27;;;;;;;;;;5038406;28;20201;-74
2021/11/05 04:59:04;;;;;;;9.90;2.90;;;;;;;;;;5029950;28;20186;-74
2021/11/05 05:01:29;;;;;;;6.10;2.70;;;;;;;;;;5028801;28;20568;-73
2021/11/05 05:03:54;;;;;;;4.60;2.43;;;;;;;;;;5028469;28;20847;-73
2021/11/05 05:06:19;;;;;;;7.97;3.13;;;;;;;;;;5028490;28;20714;-73
2021/11/05 05:08:45;;;;;;;6.60;2.87;;;;;;;;;;5027675;28;20232;-73
2021/11/05 05:11:12;;;;;;;4.43;2.83;;;;;;;;;;5013396;28;20250;-74
2021/11/05 05:13:37;;;;;;;8.33;3.40;;;;;;;;;;5028092;28;20174;-72
2021/11/05 05:16:03;;;;;;;7.03;3.50;;;;;;;;;;5012935;28;20197;-73
2021/11/05 05:18:28;;;;;;;10.97;3.87;;;;;;;;;;5015020;28;20213;-72
2021/11/05 05:20:53;;;;;;;8.67;4.10;;;;;;;;;;5027743;28;20177;-73
2021/11/05 05:23:18;;;;;;;6.87;3.60;;;;;;;;;;5030372;28;21037;-73
2021/11/05 05:25:44;;;;;;;10.60;4.10;;;;;;;;;;5015983;28;20217;-72
2021/11/05 05:28:09;;;;;;;10.47;4.50;;;;;;;;;;5032150;28;20224;-74
2021/11/05 05:30:35;;;;;;;8.53;3.77;;;;;;;;;;5028815;28;20186;-73
2021/11/05 05:33:00;;;;;;;10.47;3.80;;;;;;;;;;5028917;28;20182;-73
2021/11/05 05:35:25;;;;;;;8.83;4.20;;;;;;;;;;5013409;28;20200;-74
2021/11/05 05:37:54;;;;;;;10.80;4.30;;;;;;;;;;5027564;28;20642;-74
2021/11/05 05:40:19;;;;;;;12.87;4.87;;;;;;;;;;5027726;28;20181;-74
2021/11/05 05:42:45;;;;;;;7.50;4.87;;;;;;;;;;5011585;28;20326;-74
2021/11/05 05:45:10;;;;;;;8.30;3.73;;;;;;;;;;5023935;28;20206;-74
2021/11/05 05:47:37;;;;;;;5.40;3.67;;;;;;;;;;5026518;28;20625;-74
2021/11/05 05:50:06;;;;;;;6.70;3.73;;;;;;;;;;5025402;28;20182;-74
2021/11/05 05:52:31;;;;;;;9.00;4.20;;;;;;;;;;5013018;28;20221;-73
2021/11/05 05:54:56;;;;;;;8.47;4.37;;;;;;;;;;5043297;28;20247;-74
2021/11/05 05:57:21;;;;;;;6.83;3.87;;;;;;;;;;5031561;28;20590;-74
2021/11/05 05:59:46;;;;;;;7.00;3.80;;;;;;;;;;5024871;28;20185;-74
2021/11/05 06:02:11;;;;;;;6.87;3.83;;;;;;;;;;5027071;28;21742;-74
2021/11/05 06:04:37;;;;;;;6.37;3.20;;;;;;;;;;5011677;28;20189;-74
2021/11/05 06:07:03;;;;;;;7.77;3.33;;;;;;;;;;5010620;28;20219;-73
2021/11/05 06:09:28;;;;;;;3.87;2.87;;;;;;;;;;5026100;28;20534;-73
2021/11/05 06:11:53;;;;;;;5.20;3.00;;;;;;;;;;5027594;28;20244;-73
2021/11/05 06:14:18;;;;;;;11.70;3.17;;;;;;;;;;5026212;28;20178;-73
2021/11/05 06:16:43;;;;;;;7.07;4.10;;;;;;;;;;5032468;28;20697;-73
2021/11/05 06:19:09;;;;;;;8.33;3.27;;;;;;;;;;5027946;28;21018;-74
2021/11/05 06:21:34;;;;;;;6.53;3.20;;;;;;;;;;5027082;28;20184;-74
2021/11/05 06:23:59;;;;;;;5.53;3.37;;;;;;;;;;5032861;28;20511;-74
2021/11/05 06:26:24;;;;;;;5.90;3.33;;;;;;;;;;5030908;28;20321;-75
2021/11/05 06:28:49;;;;;;;6.13;3.63;;;;;;;;;;5025654;28;20671;-75
2021/11/05 06:31:15;;;;;;;7.03;3.30;;;;;;;;;;5009827;28;20209;-73
2021/11/05 06:33:40;;;;;;;8.33;2.93;;;;;;;;;;5030107;28;20556;-73
2021/11/05 06:36:05;;;;;;;6.20;3.40;;;;;;;;;;5025777;28;20228;-73
2021/11/05 06:38:31;;;;;;;6.07;3.20;;;;;;;;;;5026270;28;20190;-74
2021/11/05 06:40:57;;;;;;;5.90;3.20;;;;;;;;;;5027079;28;20685;-73
2021/11/05 06:43:22;;;;;;;6.23;3.13;;;;;;;;;;5024577;28;20605;-74
2021/11/05 06:45:48;;;;;;;8.20;3.43;;;;;;;;;;5025844;28;20276;-74
2021/11/05 06:48:13;;;;;;;4.57;3.13;;;;;;;;;;5026318;28;20194;-74
2021/11/05 06:50:40;;;;;;;6.53;3.43;;;;;;;;;;5025828;28;20178;-74
2021/11/05 06:53:06;;;;;;;5.83;4.23;;;;;;;;;;5024681;28;20312;-74
2021/11/05 06:55:31;;;;;;;6.27;3.50;;;;;;;;;;5011716;28;20205;-74
2021/11/05 06:57:56;;;;;;;10.80;3.07;;;;;;;;;;5028257;28;20425;-74
2021/11/05 07:00:21;;;;;;;7.77;3.87;;;;;;;;;;5024551;28;20562;-74
2021/11/05 07:02:46;;;;;;;8.33;3.60;;;;;;;;;;5009620;28;20182;-74
2021/11/05 07:05:12;;;;;;;7.43;3.10;;;;;;;;;;5029730;28;20224;-74
2021/11/05 07:07:38;;;;;;;5.83;3.73;;;;;;;;;;5027177;28;20251;-74
2021/11/05 07:10:04;;;;;;;5.67;3.43;;;;;;;;;;5027402;28;20719;-74
2021/11/05 07:12:29;;;;;;;6.00;4.13;;;;;;;;;;5023711;28;20181;-74
2021/11/05 07:14:54;;;;;;;9.43;3.63;;;;;;;;;;5024970;28;20205;-74
2021/11/05 07:17:19;;;;;;;9.80;4.40;;;;;;;;;;5032082;28;20308;-74
2021/11/05 07:19:45;;;;;;;14.70;4.13;;;;;;;;;;5027309;28;20567;-73
2021/11/05 07:22:10;;;;;;;10.43;4.50;;;;;;;;;;5039349;28;20186;-74
2021/11/05 07:24:37;;;;;;;9.53;3.77;;;;;;;;;;5045017;28;20223;-73
2021/11/05 07:27:03;;;;;;;10.93;3.50;;;;;;;;;;5034916;28;20190;-74
2021/11/05 07:29:28;;;;;;;11.13;3.53;;;;;;;;;;5044258;28;20204;-73
2021/11/05 07:31:58;;;;;;;14.43;5.47;;;;;;;;;;5052919;28;20171;-73
2021/11/05 07:34:24;;;;;;;14.93;4.13;;;;;;;;;;5057356;28;20253;-74
2021/11/05 07:36:49;;;;;;;9.13;4.23;;;;;;;;;;5033525;28;20221;-73
2021/11/05 07:39:14;;;;;;;11.87;4.40;;;;;;;;;;5050606;28;20181;-74
2021/11/05 07:41:39;;;;;;;9.03;4.07;;;;;;;;;;5047668;28;20261;-74
2021/11/05 07:44:04;;;;;;;11.47;4.33;;;;;;;;;;5045100;28;20659;-74
2021/11/05 07:46:30;;;;;;;8.73;3.93;;;;;;;;;;5028642;28;20201;-74
2021/11/05 07:48:55;;;;;;;7.03;3.90;;;;;;;;;;5049044;28;20189;-74
2021/11/05 07:51:20;;;;;;;7.90;3.90;;;;;;;;;;5051268;28;20236;-74
2021/11/05 07:53:46;;;;;;;8.80;4.37;;;;;;;;;;5046380;28;20208;-74
2021/11/05 07:56:11;;;;;;;10.70;3.67;;;;;;;;;;5046524;28;20213;-72
2021/11/05 07:58:37;;;;;;;9.47;4.07;;;;;;;;;;5045003;28;20185;-74
2021/11/05 08:01:02;;;;;;;11.20;4.17;;;;;;;;;;5045984;28;20178;-73
2021/11/05 08:03:27;;;;;;;11.63;3.77;;;;;;;;;;5053797;28;20178;-73
2021/11/05 08:05:53;;;;;;;10.37;3.47;;;;;;;;;;5045857;28;20198;-73
2021/11/05 08:08:18;;;;;;;11.13;4.27;;;;;;;;;;5047686;28;20221;-73
2021/11/05 08:10:43;;;;;;;7.73;3.63;;;;;;;;;;5027376;28;20174;-73
2021/11/05 08:13:09;;;;;;;11.37;4.30;;;;;;;;;;5052729;28;20182;-73
2021/11/05 08:15:34;;;;;;;6.50;3.90;;;;;;;;;;5048473;28;20185;-73
2021/11/05 08:17:59;;;;;;;7.07;4.00;;;;;;;;;;5030151;28;20235;-73
2021/11/05 08:20:24;;;;;;;7.30;4.30;;;;;;;;;;5050007;28;20182;-74
2021/11/05 08:22:49;;;;;;;8.27;3.87;;;;;;;;;;5014547;28;20180;-74
2021/11/05 08:25:16;;;;;;;8.73;4.13;;;;;;;;;;5024022;28;20863;-74
2021/11/05 08:27:41;;;;;;;9.73;5.20;;;;;;;;;;5025880;28;20931;-74
2021/11/05 08:30:15;;;;;;;6.43;3.57;;;;;;;;;;5022142;28;20181;-74
2021/11/05 08:32:40;;;;;;;10.13;5.03;;;;;;;;;;5029087;28;20177;-74
2021/11/05 08:35:06;;;;;;;13.10;4.70;;;;;;;;;;5008838;28;20211;-74
2021/11/05 08:37:32;;;;;;;9.67;4.30;;;;;;;;;;5029021;28;20174;-74
2021/11/05 08:39:57;;;;;;;19.47;6.67;;;;;;;;;;5023205;28;20181;-74
2021/11/05 08:42:23;;;;;;;6.40;4.27;;;;;;;;;;5024180;28;20199;-74
2021/11/05 08:44:48;;;;;;;5.37;3.57;;;;;;;;;;5023686;28;20274;-74
2021/11/05 08:47:13;;;;;;;8.20;3.70;;;;;;;;;;5007775;28;20823;-74
2021/11/05 08:49:38;;;;;;;8.70;4.00;;;;;;;;;;5009409;28;20690;-75
2021/11/05 08:52:04;;;;;;;6.03;3.43;;;;;;;;;;5024341;28;20212;-74
2021/11/05 08:54:29;;;;;;;9.93;2.93;;;;;;;;;;5026009;28;20327;-74
2021/11/05 08:56:54;;;;;;;5.27;3.70;;;;;;;;;;5034974;28;20204;-74
2021/11/05 08:59:20;;;;;;;6.67;3.60;;;;;;;;;;5023745;28;20221;-76
2021/11/05 09:01:46;;;;;;;8.57;2.80;;;;;;;;;;5010263;28;20652;-74
2021/11/05 09:04:12;;;;;;;4.50;2.67;;;;;;;;;;5026264;28;20180;-73
2021/11/05 09:06:37;;;;;;;3.87;2.50;;;;;;;;;;5027366;28;20205;-73
2021/11/05 09:09:03;;;;;;;6.50;2.97;;;;;;;;;;5025726;28;20437;-73
2021/11/05 09:11:29;;;;;;;4.43;3.00;;;;;;;;;;5025928;28;20198;-73
2021/11/05 09:13:55;;;;;;;7.43;2.73;;;;;;;;;;5026436;28;20182;-73
2021/11/05 09:16:20;;;;;;;4.38;2.42;;;;;;;;;;5024535;28;20742;-73
2021/11/05 09:18:45;;;;;;;3.75;2.35;;;;;;;;;;5031824;28;20182;-74
2021/11/05 09:21:11;;;;;;;4.32;2.47;;;;;;;;;;5024889;28;20485;-74
2021/11/05 09:23:37;;;;;;;7.07;2.00;;;;;;;;;;5024849;28;20184;-74
2021/11/05 09:26:02;;;;;;;6.78;2.22;;;;;;;;;;5030724;28;20219;-74
2021/11/05 09:28:27;;;;;;;7.75;2.10;;;;;;;;;;5029785;28;20227;-74
2021/11/05 09:30:53;;;;;;;3.42;2.08;;;;;;;;;;5025858;28;20219;-74
2021/11/05 09:33:19;;;;;;;6.32;2.33;;;;;;;;;;5011296;28;20243;-73
2021/11/05 09:35:45;;;;;;;7.03;2.10;;;;;;;;;;5013183;28;20304;-74
2021/11/05 09:38:11;;;;;;;7.38;2.13;;;;;;;;;;5030055;28;20186;-74
2021/11/05 09:40:36;;;;;;;3.88;1.92;;;;;;;;;;5011543;28;20843;-74
2021/11/05 09:43:01;;;;;;;4.05;1.85;;;;;;;;;;5012900;28;20186;-74
2021/11/05 09:45:31;;;;;;;4.03;1.40;;;;;;;;;;5028620;28;20232;-75
2021/11/05 09:47:56;;;;;;;5.10;1.73;;;;;;;;;;5029170;28;20205;-75
2021/11/05 09:50:22;;;;;;;5.07;1.48;;;;;;;;;;5028783;28;20194;-74
2021/11/05 09:52:48;;;;;;;3.58;2.00;;;;;;;;;;5029724;28;20193;-74
2021/11/05 09:55:15;;;;;;;6.43;1.80;;;;;;;;;;5013512;28;20205;-74
2021/11/05 09:57:40;;;;;;;8.38;1.83;;;;;;;;;;5032890;28;20173;-74
2021/11/05 10:00:07;;;;;;;5.97;1.95;;;;;;;;;;5028948;28;20182;-74
2021/11/05 10:02:32;;;;;;;4.97;1.25;;;;;;;;;;5028751;28;20186;-74
2021/11/05 10:04:58;;;;;;;6.38;1.50;;;;;;;;;;5027427;28;20714;-74
2021/11/05 10:07:23;;;;;;;6.93;1.83;;;;;;;;;;5014034;28;20197;-74
2021/11/05 10:09:52;;;;;;;6.10;1.42;;;;;;;;;;5027672;28;20386;-73
2021/11/05 10:12:19;;;;;;;4.25;1.63;;;;;;;;;;5031357;28;21678;-74
2021/11/05 10:14:46;;;;;;;5.95;1.73;;;;;;;;;;5029266;28;20197;-74
2021/11/05 10:17:12;;;;;;;4.35;1.50;;;;;;;;;;5033898;28;20174;-74
2021/11/05 10:20:13;;;;;;;4.93;1.20;;;;;;;;;;5028825;28;21788;-73
2021/11/05 10:22:46;;;;;;;6.32;1.25;;;;;;;;;;4933591;28;20188;-74
2021/11/05 10:25:30;;;;;;;4.70;1.10;;;;;;;;;;5013736;28;20224;-74
2021/11/05 10:28:06;;;;;;;3.08;0.75;;;;;;;;;;5028778;28;20209;-75
2021/11/05 10:30:31;;;;;;;2.05;0.70;;;;;;;;;;5027726;28;20177;-73
2021/11/05 10:32:58;;;;;;;4.60;1.10;;;;;;;;;;5028569;28;20751;-73
2021/11/05 10:35:23;;;;;;;5.05;0.70;;;;;;;;;;5029011;28;20260;-73
2021/11/05 10:37:52;;;;;;;6.05;0.85;;;;;;;;;;5025263;28;20292;-74
2021/11/05 10:40:18;;;;;;;3.65;0.80;;;;;;;;;;5025143;28;20697;-74
2021/11/05 10:42:46;;;;;;;3.30;0.70;;;;;;;;;;5026120;28;20264;-74
2021/11/05 10:45:20;;;;;;;1.73;0.63;;;;;;;;;;5026321;28;20220;-74
2021/11/05 10:47:58;;;;;;;2.78;0.93;;;;;;;;;;5025089;28;20683;-74
2021/11/05 10:50:35;;;;;;;1.00;0.70;;;;;;;;;;5027724;28;20725;-74
2021/11/05 10:53:03;;;;;;;2.45;0.90;;;;;;;;;;5038585;28;20177;-74
2021/11/05 10:55:42;;;;;;;4.00;1.58;;;;;;;;;;5020096;28;20221;-74
2021/11/05 10:58:08;;;;;;;3.03;0.95;;;;;;;;;;5043641;28;20190;-74
2021/11/05 11:00:33;;;;;;;4.50;0.70;;;;;;;;;;5032374;28;20182;-74
2021/11/05 11:03:11;;;;;;;4.68;0.80;;;;;;;;;;5049910;28;20196;-75
2021/11/05 11:05:42;;;;;;;3.05;0.70;;;;;;;;;;5025040;28;20517;-75
2021/11/05 11:08:18;;;;;;;2.58;0.43;;;;;;;;;;5027943;28;20663;-73
2021/11/05 11:10:44;;;;;;;2.15;0.70;;;;;;;;;;5029781;28;20177;-74
2021/11/05 11:13:28;;;;;;;2.20;0.70;;;;;;;;;;5027123;28;20554;-73
2021/11/05 11:15:53;;;;;;;3.92;0.70;;;;;;;;;;5027365;28;20713;-73
2021/11/05 11:18:18;;;;;;;3.67;0.60;;;;;;;;;;5033162;28;20202;-73
2021/11/05 11:20:44;;;;;;;0.88;0.50;;;;;;;;;;5030567;28;20177;-73
2021/11/05 11:23:09;;;;;;;1.67;0.80;;;;;;;;;;5012751;28;20178;-74
2021/11/05 11:25:36;;;;;;;3.60;0.90;;;;;;;;;;5032028;28;20220;-73
2021/11/05 11:28:01;;;;;;;2.45;0.77;;;;;;;;;;5032242;28;20209;-73
2021/11/05 11:30:26;;;;;;;6.47;0.85;;;;;;;;;;5030961;28;20182;-73
2021/11/05 11:32:51;;;;;;;3.95;0.70;;;;;;;;;;5023749;28;21205;-73
2021/11/05 11:35:17;;;;;;;4.45;0.82;;;;;;;;;;5026868;28;20201;-73
2021/11/05 11:37:42;;;;;;;2.10;0.57;;;;;;;;;;5031033;28;20572;-73
2021/11/05 11:40:08;;;;;;;2.05;0.50;;;;;;;;;;5031941;28;20264;-73
2021/11/05 11:42:34;;;;;;;1.27;0.45;;;;;;;;;;5027382;28;20189;-73
2021/11/05 11:44:59;;;;;;;2.40;0.70;;;;;;;;;;4999088;28;20193;-73
2021/11/05 11:47:25;;;;;;;3.25;0.95;;;;;;;;;;5030677;28;20247;-73
2021/11/05 11:49:50;;;;;;;4.55;0.93;;;;;;;;;;5028435;28;21809;-73
2021/11/05 11:52:18;;;;;;;2.55;0.57;;;;;;;;;;5029136;28;20186;-74
2021/11/05 11:54:44;;;;;;;3.88;0.70;;;;;;;;;;5005139;28;20209;-74
2021/11/05 11:57:20;;;;;;;3.42;0.90;;;;;;;;;;5025556;28;20178;-74
2021/11/05 12:00:03;;;;;;;1.20;0.57;;;;;;;;;;5027032;28;21184;-74
2021/11/05 12:02:32;;;;;;;2.88;0.70;;;;;;;;;;5026741;28;20181;-74
2021/11/05 12:05:02;;;;;;;3.03;0.80;;;;;;;;;;5020901;28;20217;-74
2021/11/05 12:07:27;;;;;;;6.43;0.73;;;;;;;;;;5027871;28;20181;-73
2021/11/05 12:09:52;;;;;;;3.90;0.63;;;;;;;;;;5025573;28;20220;-74
2021/11/05 12:12:21;;;;;;;2.95;0.93;;;;;;;;;;5024133;28;20185;-74
2021/11/05 12:14:58;;;;;;;3.17;1.25;;;;;;;;;;5027948;28;20186;-74
2021/11/05 12:17:24;;;;;;;2.80;1.35;;;;;;;;;;5031024;28;20177;-74
2021/11/05 12:19:49;;;;;;;2.00;0.70;;;;;;;;;;5026964;28;20721;-74
2021/11/05 12:22:16;;;;;;;3.45;0.70;;;;;;;;;;5023350;28;20288;-74
2021/11/05 12:24:42;;;;;;;2.70;0.70;;;;;;;;;;5024401;28;20724;-74
2021/11/05 12:27:07;;;;;;;3.80;0.93;;;;;;;;;;5014847;28;20185;-74
2021/11/05 12:29:32;;;;;;;2.50;0.90;;;;;;;;;;5026136;28;20209;-72
2021/11/05 12:32:22;;;;;;;3.08;0.70;;;;;;;;;;5025472;28;20954;-73
2021/11/05 12:34:52;;;;;;;2.72;0.70;;;;;;;;;;5027294;28;20185;-73
2021/11/05 12:37:30;;;;;;;3.63;1.00;;;;;;;;;;5025323;28;20178;-74
2021/11/05 12:39:55;;;;;;;6.65;1.00;;;;;;;;;;5011749;28;20207;-72
2021/11/05 12:42:20;;;;;;;2.92;0.70;;;;;;;;;;5027105;28;20198;-73
2021/11/05 12:44:54;;;;;;;6.47;1.17;;;;;;;;;;5025974;28;20545;-72
2021/11/05 12:47:38;;;;;;;3.40;0.80;;;;;;;;;;5026345;28;20170;-72
2021/11/05 12:50:03;;;;;;;5.32;0.88;;;;;;;;;;5027118;28;20185;-72
2021/11/05 12:52:29;;;;;;;3.75;0.80;;;;;;;;;;5027148;28;20194;-72
2021/11/05 12:55:01;;;;;;;6.38;1.00;;;;;;;;;;5028010;28;20201;-73
2021/11/05 12:57:26;;;;;;;4.03;1.10;;;;;;;;;;5035270;28;20193;-72
2021/11/05 12:59:51;;;;;;;2.50;0.57;;;;;;;;;;5027299;28;20182;-73
2021/11/05 13:02:20;;;;;;;4.82;0.80;;;;;;;;;;5025979;28;20298;-73
2021/11/05 13:04:50;;;;;;;8.20;0.68;;;;;;;;;;5029689;28;20209;-73
2021/11/05 13:07:15;;;;;;;6.30;1.00;;;;;;;;;;5027060;28;20314;-73
2021/11/05 13:09:42;;;;;;;4.68;1.35;;;;;;;;;;5029707;28;20193;-73
2021/11/05 13:12:07;;;;;;;5.53;1.30;;;;;;;;;;5030205;28;20774;-73
2021/11/05 13:14:37;;;;;;;1.80;0.50;;;;;;;;;;5032398;28;20206;-73
2021/11/05 13:17:02;;;;;;;2.85;0.70;;;;;;;;;;5034001;28;20186;-72
2021/11/05 13:19:28;;;;;;;5.43;0.88;;;;;;;;;;5031473;28;20181;-73
2021/11/05 13:22:05;;;;;;;1.75;0.40;;;;;;;;;;5030224;28;20198;-74
2021/11/05 13:24:30;;;;;;;3.33;1.02;;;;;;;;;;5030170;28;20181;-72
2021/11/05 13:27:05;;;;;;;9.13;1.00;;;;;;;;;;5033347;28;20217;-73
2021/11/05 13:29:30;;;;;;;5.45;0.85;;;;;;;;;;5030969;28;20676;-73
2021/11/05 13:32:10;;;;;;;4.03;1.20;;;;;;;;;;5029939;28;20212;-72
2021/11/05 13:34:36;;;;;;;1.88;0.70;;;;;;;;;;5032079;28;20228;-72
2021/11/05 13:37:02;;;;;;;2.90;0.70;;;;;;;;;;5012745;28;20182;-72
2021/11/05 13:39:27;;;;;;;2.92;0.60;;;;;;;;;;5027941;28;20568;-72
2021/11/05 13:41:52;;;;;;;2.13;0.57;;;;;;;;;;5015683;28;20200;-74
2021/11/05 13:44:17;;;;;;;3.33;0.65;;;;;;;;;;5031934;28;20181;-73
2021/11/05 13:46:43;;;;;;;3.30;0.80;;;;;;;;;;5030694;28;20284;-73
2021/11/05 13:49:13;;;;;;;4.05;0.50;;;;;;;;;;5029169;28;20921;-74
2021/11/05 13:51:41;;;;;;;2.38;0.65;;;;;;;;;;5005250;28;20190;-73
2021/11/05 13:54:08;;;;;;;2.78;1.23;;;;;;;;;;5031898;28;20238;-72
2021/11/05 13:56:37;;;;;;;2.28;0.73;;;;;;;;;;5031991;28;21722;-73
2021/11/05 13:59:14;;;;;;;7.10;0.75;;;;;;;;;;5029503;28;20188;-73
2021/11/05 14:01:42;;;;;;;2.65;0.98;;;;;;;;;;5028525;28;20177;-73
2021/11/05 14:04:08;;;;;;;4.90;0.60;;;;;;;;;;5029533;28;20209;-72
2021/11/05 14:06:39;;;;;;;3.28;0.70;;;;;;;;;;5029286;28;20639;-73
2021/11/05 14:09:05;;;;;;;1.33;0.50;;;;;;;;;;5016805;28;20205;-73
2021/11/05 14:11:35;;;;;;;2.25;0.65;;;;;;;;;;5012395;28;20610;-73
2021/11/05 14:14:01;;;;;;;4.10;0.90;;;;;;;;;;5026561;28;20209;-73
2021/11/05 14:16:29;;;;;;;1.20;0.40;;;;;;;;;;5028478;28;20292;-74
2021/11/05 14:19:04;;;;;;;3.15;0.63;;;;;;;;;;5032429;28;20192;-73
2021/11/05 14:21:30;;;;;;;6.80;0.80;;;;;;;;;;5035765;28;20234;-73
2021/11/05 14:24:15;;;;;;;1.80;0.90;;;;;;;;;;5027526;28;20182;-73
2021/11/05 14:26:41;;;;;;;2.50;0.60;;;;;;;;;;5030938;28;20894;-70
2021/11/05 14:29:09;;;;;;;3.95;1.40;;;;;;;;;;5025836;28;20194;-71
2021/11/05 14:31:48;;;;;;;2.60;0.73;;;;;;;;;;5029607;28;20676;-72
2021/11/05 14:34:13;;;;;;;4.05;0.52;;;;;;;;;;5025248;28;20193;-72
2021/11/05 14:36:38;;;;;;;3.55;0.60;;;;;;;;;;5024862;28;21599;-72
2021/11/05 14:39:04;;;;;;;1.98;0.60;;;;;;;;;;5027774;28;20239;-71